Time;durP1;ratioP1;P1;durP2;ratioP2;P2;SDS_P1;SDS_P2;PMS_P1;PMS_P2;Temp;Humidity;BMP_temperature;BMP_pressure;BME280_temperature;BME280_humidity;BME280_pressure;Samples;Min_cycle;Max_cycle;Signal;HPM_P1;HPM_P2
2021/07/20 00:16:07;;;;;;;19.00;4.70;;;;;;;14.43;85.39;101117.81;6238989;22;20181;-83
2021/07/20 01:02:31;;;;;;;23.80;5.93;;;;;;;14.09;85.62;101119.88;6252386;22;20048;-84
2021/07/20 01:04:57;;;;;;;21.05;5.07;;;;;;;13.97;85.70;101109.94;6274379;22;20051;-83
2021/07/20 01:30:42;;;;;;;19.85;5.45;;;;;;;14.59;87.00;101216.72;6234259;22;20008;-84
2021/07/20 01:38:22;;;;;;;23.30;6.07;;;;;;;14.36;87.36;101186.59;6245487;22;20046;-82
2021/07/20 02:01:36;;;;;;;22.25;5.90;;;;;;;13.96;87.80;101140.75;6201860;22;20012;-82
2021/07/20 02:09:23;;;;;;;22.77;5.60;;;;;;;13.36;87.75;101059.78;6243933;22;20019;-83
2021/07/20 02:11:52;;;;;;;19.15;5.95;;;;;;;14.00;88.10;101156.31;6216997;23;20008;-84
2021/07/20 02:14:23;;;;;;;18.38;5.85;;;;;;;13.79;87.98;101130.38;6217258;23;20004;-83
2021/07/20 02:16:50;;;;;;;25.92;6.15;;;;;;;13.46;88.07;101079.09;6217710;23;20048;-83
2021/07/20 02:38:20;;;;;;;21.25;6.88;;;;;;;14.59;88.56;101195.06;6218826;22;20027;31
2021/07/20 02:58:54;;;;;;;26.13;8.52;;;;;;;13.73;88.72;101052.78;6236705;22;20043;-83
2021/07/20 03:50:24;;;;;;;29.23;11.15;;;;;;;14.36;88.34;101032.28;6244148;22;20074;-83
2021/07/20 03:52:52;;;;;;;28.10;11.35;;;;;;;14.94;88.59;101108.78;6244651;23;19996;-83
2021/07/20 03:57:53;;;;;;;31.23;10.68;;;;;;;15.00;88.67;101099.78;6231194;22;20012;-83
2021/07/20 04:02:58;;;;;;;26.30;10.95;;;;;;;14.55;88.50;101010.50;6223496;22;20847;-79
2021/07/20 04:08:00;;;;;;;33.05;10.60;;;;;;;15.48;88.86;101150.63;6239484;22;20015;-84
2021/07/20 04:10:26;;;;;;;31.15;10.07;;;;;;;14.62;88.90;101006.94;6218804;23;19997;-82
2021/07/20 04:46:30;;;;;;;21.90;6.95;;;;;;;15.72;84.95;101064.03;6243192;22;20068;-83
2021/07/20 06:01:19;;;;;;;10.85;3.30;;;;;;;18.61;69.60;100988.53;6213142;23;20096;-84
2021/07/20 06:03:46;;;;;;;12.05;3.58;;;;;;;19.03;68.59;101031.72;6186998;23;20016;-80
2021/07/20 15:04:33;;;;;;;4.43;2.80;;;;;;;19.67;60.24;101094.88;6257851;22;20008;-85
2021/07/20 17:04:26;;;;;;;6.17;2.20;;;;;;;20.08;72.33;101281.16;6250057;22;20018;31
2021/07/20 17:09:25;;;;;;;8.02;2.00;;;;;;;19.32;73.28;101179.75;6242435;22;20024;-81
2021/07/20 17:11:50;;;;;;;10.90;2.85;;;;;;;19.61;73.24;101234.25;6243309;22;20035;-83
2021/07/20 17:14:16;;;;;;;10.35;2.28;;;;;;;18.93;74.28;101143.38;6242030;22;20012;-81
2021/07/20 17:16:46;;;;;;;13.02;2.72;;;;;;;19.04;74.89;101180.66;6243269;22;20016;-82
2021/07/20 17:19:12;;;;;;;11.00;2.22;;;;;;;19.39;75.91;101250.53;6242457;23;19996;-81
2021/07/20 17:21:41;;;;;;;9.73;2.78;;;;;;;19.32;76.75;101237.06;6243751;22;19984;-81
2021/07/20 17:24:12;;;;;;;11.50;2.45;;;;;;;18.54;76.85;101119.50;6243288;22;19993;-81
2021/07/20 17:26:41;;;;;;;10.48;2.30;;;;;;;19.36;75.68;101231.94;6243708;22;20004;-82
2021/07/20 17:29:14;;;;;;;13.73;2.60;;;;;;;18.70;75.17;101108.84;6241631;22;20004;-81
2021/07/20 17:31:40;;;;;;;18.52;2.88;;;;;;;19.70;74.61;101224.59;6240111;23;20001;-80
2021/07/20 17:34:07;;;;;;;13.60;2.50;;;;;;;19.93;73.86;101239.94;6240467;22;20024;-82
2021/07/20 17:36:33;;;;;;;12.43;2.30;;;;;;;19.38;73.44;101126.09;6243950;22;19993;-83
2021/07/20 17:39:07;;;;;;;17.95;2.78;;;;;;;19.65;72.40;101157.09;6242979;22;20013;-83
2021/07/20 17:46:42;;;;;;;9.32;2.85;;;;;;;19.41;72.36;101120.13;6241196;23;20009;-80
2021/07/20 17:49:08;;;;;;;16.02;3.50;;;;;;;19.69;72.21;101171.06;6217110;23;20003;-82
2021/07/20 17:51:41;;;;;;;16.98;3.28;;;;;;;19.33;72.74;101126.00;6242464;23;20060;-82
2021/07/20 17:54:21;;;;;;;12.75;2.90;;;;;;;19.42;73.07;101149.06;6217143;23;20009;-80
2021/07/20 17:59:23;;;;;;;12.63;2.72;;;;;;;19.24;72.77;101112.81;6256290;22;20015;-80
2021/07/20 18:01:52;;;;;;;12.15;2.63;;;;;;;19.63;72.25;101161.13;6235528;22;20072;-81
2021/07/20 18:04:20;;;;;;;10.75;2.33;;;;;;;19.27;72.53;101113.34;6256747;22;19996;-81
2021/07/20 18:06:47;;;;;;;12.05;2.30;;;;;;;20.00;73.32;101270.69;6264791;22;20045;-82
2021/07/20 18:09:13;;;;;;;13.05;2.70;;;;;;;19.49;73.64;101215.22;6272821;22;20042;-81
2021/07/20 18:11:39;;;;;;;8.43;2.03;;;;;;;18.79;74.23;101131.94;6269037;22;20019;-81
2021/07/20 18:14:05;;;;;;;10.43;2.20;;;;;;;19.87;73.83;101309.25;6271085;23;20011;-82
2021/07/20 18:16:31;;;;;;;11.38;2.25;;;;;;;19.10;73.56;101184.28;6267316;23;19988;-80
2021/07/20 18:18:58;;;;;;;9.02;2.15;;;;;;;18.89;73.69;101134.03;6267800;23;20038;-81
2021/07/20 18:21:24;;;;;;;12.27;2.58;;;;;;;18.80;74.08;101128.13;6266218;23;20008;-81
2021/07/20 18:23:51;;;;;;;11.25;2.35;;;;;;;19.09;73.57;101174.47;6265785;22;20007;-81
2021/07/20 18:26:18;;;;;;;9.43;2.38;;;;;;;19.30;73.33;101213.81;6267372;22;19984;-81
2021/07/20 18:28:46;;;;;;;9.27;2.00;;;;;;;19.57;73.31;101253.03;6265853;22;20004;-81
2021/07/20 18:31:12;;;;;;;11.00;2.15;;;;;;;19.76;73.97;101297.31;6239056;23;20026;-81
2021/07/20 18:33:37;;;;;;;11.60;2.30;;;;;;;20.03;74.08;101329.41;6247662;23;20197;-79
2021/07/20 18:36:03;;;;;;;15.75;2.47;;;;;;;20.00;74.19;101328.03;6223112;23;20008;-79
2021/07/20 18:38:29;;;;;;;11.80;2.40;;;;;;;20.09;74.01;101326.53;6248064;22;20004;-79
2021/07/20 18:40:54;;;;;;;13.65;2.03;;;;;;;20.02;74.09;101336.78;6220573;23;20004;-79
2021/07/20 18:43:21;;;;;;;10.88;2.15;;;;;;;19.92;74.43;101337.47;6248855;22;20054;-80
2021/07/20 18:45:48;;;;;;;11.55;2.13;;;;;;;19.81;74.45;101340.28;6245284;23;20019;-79
2021/07/20 18:48:13;;;;;;;10.13;2.42;;;;;;;19.58;74.86;101313.94;6220375;23;20004;-79
2021/07/20 18:50:40;;;;;;;11.18;2.55;;;;;;;19.60;75.13;101331.72;6246731;23;20031;-79
2021/07/20 18:53:06;;;;;;;15.60;2.67;;;;;;;19.48;75.72;101334.50;6247245;22;20122;-79
2021/07/20 18:55:31;;;;;;;12.77;2.95;;;;;;;19.42;76.20;101342.84;6249387;23;20457;-80
2021/07/20 18:57:57;;;;;;;13.60;2.97;;;;;;;19.38;76.31;101341.69;6247812;22;20038;-80
2021/07/20 19:00:23;;;;;;;15.82;2.85;;;;;;;19.33;76.54;101338.84;6246719;23;20150;-79
2021/07/20 19:02:49;;;;;;;12.70;2.88;;;;;;;19.29;77.13;101341.22;6245571;23;20066;-79
2021/07/20 19:05:19;;;;;;;14.60;3.00;;;;;;;19.15;77.58;101332.53;6247038;23;20083;-79
2021/07/20 19:07:46;;;;;;;14.02;3.15;;;;;;;19.20;77.28;101353.59;6248066;22;19997;-79
2021/07/20 19:10:14;;;;;;;16.38;2.97;;;;;;;19.21;77.08;101352.56;6224284;23;20099;-79
2021/07/20 19:12:39;;;;;;;15.10;3.40;;;;;;;19.14;77.52;101351.84;6273136;22;20015;-79
2021/07/20 19:15:06;;;;;;;13.27;3.22;;;;;;;19.00;77.76;101363.03;6280705;22;20463;-79
2021/07/20 19:17:33;;;;;;;15.98;3.38;;;;;;;18.92;77.71;101368.06;6279338;22;20003;-79
2021/07/20 19:19:58;;;;;;;11.65;3.53;;;;;;;18.86;77.82;101363.56;6228827;22;20015;-79
2021/07/20 19:22:24;;;;;;;15.10;3.22;;;;;;;18.75;78.19;101367.97;6251422;22;20445;-79
2021/07/20 19:24:51;;;;;;;16.85;3.65;;;;;;;18.71;78.71;101366.78;6227820;22;20012;-80
2021/07/20 19:27:17;;;;;;;12.88;2.95;;;;;;;18.62;79.11;101363.56;6279428;22;20073;-79
2021/07/20 19:29:44;;;;;;;16.40;3.55;;;;;;;18.53;79.31;101367.72;6253873;22;20011;-79
2021/07/20 19:32:15;;;;;;;14.18;3.88;;;;;;;18.50;79.53;101374.47;6228924;22;20008;-79
2021/07/20 19:34:41;;;;;;;15.35;3.38;;;;;;;18.37;79.74;101358.38;6228595;22;20018;-79
2021/07/20 19:37:06;;;;;;;13.43;3.40;;;;;;;18.41;79.81;101365.03;6252603;22;20700;-79
2021/07/20 19:39:33;;;;;;;17.08;3.85;;;;;;;18.37;80.01;101366.53;6227628;22;20011;-79
2021/07/20 19:42:00;;;;;;;14.25;3.30;;;;;;;18.27;80.43;101358.13;6252085;22;20034;-79
2021/07/20 19:44:25;;;;;;;16.88;3.30;;;;;;;18.27;80.52;101358.97;6227575;22;20090;-79
2021/07/20 19:46:50;;;;;;;16.77;3.35;;;;;;;18.25;80.48;101369.28;6281137;22;20338;-79
2021/07/20 19:49:16;;;;;;;20.75;3.50;;;;;;;18.18;80.79;101371.28;6257185;22;20090;-80
2021/07/20 19:51:41;;;;;;;19.88;3.35;;;;;;;18.17;80.81;101368.78;6262480;22;20070;-79
2021/07/20 19:54:07;;;;;;;17.92;3.28;;;;;;;18.11;80.88;101367.00;6258817;22;20148;-79
2021/07/20 19:56:34;;;;;;;19.27;3.33;;;;;;;18.06;80.94;101360.38;6257566;22;20010;-80
2021/07/20 19:59:00;;;;;;;20.30;3.55;;;;;;;18.07;81.21;101364.75;6283222;22;20015;-80
2021/07/20 20:01:26;;;;;;;12.43;3.28;;;;;;;17.99;81.35;101358.84;6286010;22;20016;-80
2021/07/20 20:03:52;;;;;;;17.13;3.58;;;;;;;17.93;81.61;101367.94;6286857;22;20011;-80
2021/07/20 20:06:18;;;;;;;13.38;2.97;;;;;;;17.75;81.60;101345.16;6264796;22;20007;-81
2021/07/20 20:08:43;;;;;;;17.67;4.13;;;;;;;17.85;81.69;101369.13;6296551;22;20008;-81
2021/07/20 20:11:09;;;;;;;15.15;3.00;;;;;;;17.87;82.17;101374.31;6267780;22;20022;-81
2021/07/20 20:13:35;;;;;;;16.17;3.33;;;;;;;17.88;81.71;101375.97;6267552;22;20317;-80
2021/07/20 20:16:01;;;;;;;13.93;3.53;;;;;;;17.80;82.14;101379.88;6226989;22;20006;-78
2021/07/20 20:18:26;;;;;;;13.32;3.38;;;;;;;17.73;82.32;101379.94;6276831;22;20004;-79
2021/07/20 20:20:52;;;;;;;16.88;3.42;;;;;;;17.72;82.29;101378.28;6278075;22;20089;-79
2021/07/20 20:23:17;;;;;;;16.15;3.20;;;;;;;16.76;82.34;101233.19;6254068;22;20225;-80
2021/07/20 20:25:43;;;;;;;15.98;3.55;;;;;;;16.72;82.64;101245.56;6288661;22;19988;-82
2021/07/20 20:28:08;;;;;;;10.93;3.08;;;;;;;16.94;82.70;101269.56;6276582;22;20046;-82
2021/07/20 20:30:34;;;;;;;17.88;3.50;;;;;;;16.54;82.96;101229.28;6303714;22;20038;-82
2021/07/20 20:33:02;;;;;;;15.40;3.47;;;;;;;16.83;83.13;101274.72;6275294;22;20331;-82
2021/07/20 20:35:29;;;;;;;14.27;3.17;;;;;;;16.89;83.24;101278.41;6296858;22;20621;-81
2021/07/20 20:37:54;;;;;;;13.00;3.22;;;;;;;16.76;83.38;101267.72;6274591;22;19984;-82
2021/07/20 20:42:55;;;;;;;15.80;3.60;;;;;;;16.95;83.84;101339.16;6264788;22;20241;-81
2021/07/20 21:03:27;;;;;;;23.90;4.32;;;;;;;16.12;85.59;101310.56;6262283;22;20032;-83
2021/07/20 21:44:36;;;;;;;16.77;4.07;;;;;;;15.38;87.58;101283.19;6259336;22;20030;-82
2021/07/20 21:47:02;;;;;;;15.45;3.90;;;;;;;16.24;87.78;101409.25;6276737;22;20099;-82
2021/07/20 22:20:29;;;;;;;15.18;4.20;;;;;;;15.43;88.80;101340.31;6271993;22;20031;-82
2021/07/20 23:04:18;;;;;;;22.67;5.18;;;;;;;14.87;90.54;101343.72;6257108;22;20015;-83
2021/07/20 23:06:43;;;;;;;26.73;4.57;;;;;;;15.27;90.38;101414.88;6272585;22;20000;-84
2021/07/20 23:36:32;;;;;;;18.15;4.78;;;;;;;15.25;91.56;101508.31;6246512;22;20786;31
